Time;durP1;ratioP1;P1;durP2;ratioP2;P2;SDS_P1;SDS_P2;PMS_P1;PMS_P2;Temp;Humidity;BMP_temperature;BMP_pressure;BME280_temperature;BME280_humidity;BME280_pressure;Samples;Min_cycle;Max_cycle;Signal;HPM_P1;HPM_P2
2021/05/12 00:01:04;;;;;;;4.03;1.70;;;;;;;14.13;45.23;93568.16;5132000;27;20019;-69
2021/05/12 00:03:32;;;;;;;6.72;2.20;;;;;;;14.11;44.79;93575.00;5124781;27;20391;-70
2021/05/12 00:05:58;;;;;;;14.90;2.50;;;;;;;14.06;46.00;93573.31;5123376;27;20076;-70
2021/05/12 00:08:24;;;;;;;4.65;2.08;;;;;;;14.04;45.83;93567.50;5127806;27;20114;-69
2021/05/12 00:10:49;;;;;;;6.05;2.20;;;;;;;14.01;46.50;93570.91;5125977;27;20379;-69
2021/05/12 00:13:14;;;;;;;5.82;2.22;;;;;;;14.01;47.05;93560.19;5119222;27;20019;-69
2021/05/12 00:15:40;;;;;;;9.60;2.45;;;;;;;13.90;46.45;93559.09;5128671;27;20048;-69
2021/05/12 00:18:11;;;;;;;4.70;2.72;;;;;;;13.88;46.42;93556.78;5123488;27;20019;-70
2021/05/12 00:20:37;;;;;;;7.80;2.20;;;;;;;13.76;46.93;93554.91;5122459;27;20043;-69
2021/05/12 00:23:06;;;;;;;6.18;2.42;;;;;;;13.71;47.25;93549.78;5117738;27;20471;-70
2021/05/12 00:25:32;;;;;;;5.40;2.22;;;;;;;13.70;47.35;93558.94;5120966;27;20035;-69
2021/05/12 00:27:57;;;;;;;4.95;2.35;;;;;;;13.65;47.49;93554.59;5121339;27;20449;-69
2021/05/12 00:30:23;;;;;;;5.18;1.80;;;;;;;13.58;47.28;93548.28;5128120;27;20038;-69
2021/05/12 00:32:49;;;;;;;5.57;2.20;;;;;;;13.53;47.37;93546.59;5119513;27;20435;-69
2021/05/12 00:35:15;;;;;;;3.60;2.20;;;;;;;13.46;47.91;93530.34;5126668;27;20042;-69
2021/05/12 00:37:41;;;;;;;7.03;2.05;;;;;;;13.45;48.34;93531.44;5121064;27;20023;-70
2021/05/12 00:40:10;;;;;;;8.18;2.20;;;;;;;13.43;48.36;93531.00;5128141;27;20414;-70
2021/05/12 00:42:35;;;;;;;4.07;1.38;;;;;;;13.39;47.83;93536.28;5128940;27;20030;-70
2021/05/12 00:45:04;;;;;;;3.92;1.27;;;;;;;13.15;48.43;93529.03;5128834;27;20041;-70
2021/05/12 00:47:31;;;;;;;4.50;1.50;;;;;;;13.02;48.83;93536.28;5117826;27;20055;-70
2021/05/12 00:49:57;;;;;;;4.15;1.92;;;;;;;12.91;49.13;93535.19;5119305;27;20072;-70
2021/05/12 00:52:24;;;;;;;3.25;1.38;;;;;;;12.77;49.47;93521.38;5121057;27;20426;-70
2021/05/12 00:54:50;;;;;;;3.97;1.70;;;;;;;12.68;49.87;93526.03;5129262;27;20032;-70
2021/05/12 00:57:16;;;;;;;6.25;1.83;;;;;;;12.56;49.80;93519.56;5126918;27;20058;-70
2021/05/12 00:59:44;;;;;;;11.13;1.60;;;;;;;12.45;49.51;93515.75;5128135;27;20079;-70
2021/05/12 01:02:09;;;;;;;3.45;1.23;;;;;;;12.34;49.77;93506.63;5127379;27;20031;-70
2021/05/12 01:04:36;;;;;;;3.88;1.20;;;;;;;12.34;49.56;93514.66;5118410;27;20102;-70
2021/05/12 01:07:02;;;;;;;6.30;1.50;;;;;;;12.30;49.62;93514.53;5123986;27;20046;-70
2021/05/12 01:09:27;;;;;;;12.77;1.80;;;;;;;12.30;49.80;93519.09;5128700;27;20478;-70
2021/05/12 01:11:53;;;;;;;4.20;1.40;;;;;;;12.28;49.58;93514.09;5118345;27;20459;-69
2021/05/12 01:14:19;;;;;;;11.82;1.25;;;;;;;12.27;49.79;93509.84;5121059;28;20022;-69
2021/05/12 01:16:46;;;;;;;4.40;1.55;;;;;;;12.26;50.53;93507.50;5121103;27;20042;-70
2021/05/12 01:19:12;;;;;;;5.25;1.75;;;;;;;12.28;50.17;93502.63;5116667;27;20027;-70
2021/05/12 01:21:38;;;;;;;8.57;1.10;;;;;;;12.30;50.25;93497.72;5120430;28;20057;-70
2021/05/12 01:24:04;;;;;;;4.70;1.50;;;;;;;12.31;50.27;93501.94;5118911;28;20443;-70
2021/05/12 01:26:29;;;;;;;5.75;1.50;;;;;;;12.33;50.05;93497.03;5129533;28;20482;-70
2021/05/12 01:28:55;;;;;;;5.28;1.25;;;;;;;12.30;50.08;93493.16;5129887;28;20050;-70
2021/05/12 01:31:22;;;;;;;6.75;1.40;;;;;;;12.27;50.44;93493.03;5125215;27;20084;-70
2021/05/12 01:33:51;;;;;;;8.82;1.90;;;;;;;12.23;50.68;93499.06;5129962;28;20027;-70
2021/05/12 01:36:18;;;;;;;4.13;1.38;;;;;;;12.24;50.85;93494.47;5126739;27;20020;-71
2021/05/12 01:38:45;;;;;;;4.40;1.52;;;;;;;12.17;50.96;93499.56;5124163;27;20039;-70
2021/05/12 01:41:11;;;;;;;5.22;1.23;;;;;;;12.10;50.61;93489.44;5118840;28;20059;-71
2021/05/12 01:43:37;;;;;;;4.35;1.60;;;;;;;12.05;51.03;93481.66;5130639;27;20545;-70
2021/05/12 01:46:04;;;;;;;3.70;1.75;;;;;;;12.04;51.50;93486.19;5133185;27;20027;-70
2021/05/12 01:48:30;;;;;;;6.82;1.70;;;;;;;12.07;51.88;93490.13;5124684;27;20031;-71
2021/05/12 01:50:56;;;;;;;6.13;1.83;;;;;;;12.15;52.09;93486.56;5130695;27;20497;-71
2021/05/12 01:53:22;;;;;;;3.30;1.70;;;;;;;12.20;51.92;93478.31;5120579;27;20035;-72
2021/05/12 01:55:49;;;;;;;6.68;1.50;;;;;;;12.24;51.19;93481.13;5122109;27;20474;-71
2021/05/12 01:58:15;;;;;;;5.75;2.03;;;;;;;12.24;50.79;93479.22;5133209;27;20027;-72
2021/05/12 02:00:44;;;;;;;4.60;1.55;;;;;;;12.23;50.92;93480.34;5130058;27;20470;-71
2021/05/12 02:03:10;;;;;;;3.20;1.75;;;;;;;12.26;50.67;93470.09;5133857;27;20027;-71
2021/05/12 02:05:37;;;;;;;5.47;2.33;;;;;;;12.22;51.28;93476.09;5132423;27;20031;-71
2021/05/12 02:08:05;;;;;;;3.05;1.50;;;;;;;12.30;51.05;93477.13;5133556;27;20505;-71
2021/05/12 02:10:31;;;;;;;7.15;1.67;;;;;;;12.36;52.06;93475.00;5131720;27;20435;-71
2021/05/12 02:12:57;;;;;;;7.32;2.28;;;;;;;12.37;52.19;93479.22;5131483;27;20025;-71
2021/05/12 02:15:23;;;;;;;8.30;1.77;;;;;;;12.34;51.05;93471.91;5129838;27;20456;-71
2021/05/12 02:17:49;;;;;;;4.68;1.50;;;;;;;12.28;50.90;93471.31;5130852;27;20481;-72
2021/05/12 02:20:17;;;;;;;5.65;2.42;;;;;;;12.26;51.11;93475.44;5131286;27;20043;-71
2021/05/12 02:22:43;;;;;;;6.47;2.63;;;;;;;12.19;51.35;93466.09;5121669;27;20031;-71
2021/05/12 02:25:09;;;;;;;9.95;2.13;;;;;;;12.11;51.43;93458.97;5124161;27;20496;-70
2021/05/12 02:27:36;;;;;;;7.05;2.28;;;;;;;12.06;51.52;93463.72;5130555;27;20493;-72
2021/05/12 02:30:04;;;;;;;9.23;2.25;;;;;;;11.98;52.14;93460.03;5130578;27;20104;-71
2021/05/12 02:32:29;;;;;;;3.95;2.00;;;;;;;11.96;52.54;93456.91;5121911;27;20075;-71
2021/05/12 02:34:56;;;;;;;5.55;2.08;;;;;;;11.95;52.79;93468.72;5123411;27;20031;-71
2021/05/12 02:37:23;;;;;;;10.80;2.30;;;;;;;11.99;53.03;93461.59;5123565;27;20087;-71
2021/05/12 02:39:49;;;;;;;9.18;2.55;;;;;;;11.99;53.67;93466.94;5125012;27;20054;-71
2021/05/12 02:42:14;;;;;;;5.53;2.05;;;;;;;11.99;54.08;93464.28;5132742;27;20034;-71
2021/05/12 02:44:40;;;;;;;14.57;3.70;;;;;;;11.99;54.29;93456.28;5122109;27;20083;-71
2021/05/12 02:47:05;;;;;;;6.05;2.55;;;;;;;11.98;54.62;93463.47;5122353;27;20068;-71
2021/05/12 02:49:31;;;;;;;4.15;2.40;;;;;;;11.95;54.62;93456.16;5126979;27;20027;-71
2021/05/12 02:51:56;;;;;;;7.88;2.35;;;;;;;11.98;54.53;93454.69;5130325;27;20419;-71
2021/05/12 02:54:22;;;;;;;7.25;2.55;;;;;;;11.98;54.70;93452.78;5123397;27;20030;-71
2021/05/12 02:56:47;;;;;;;7.22;2.28;;;;;;;11.96;54.82;93451.56;5131898;27;20372;-71
2021/05/12 02:59:13;;;;;;;8.75;2.20;;;;;;;11.95;53.83;93455.38;5125454;27;20418;-72
2021/05/12 03:01:38;;;;;;;4.25;1.90;;;;;;;11.93;53.00;93453.03;5125900;27;20023;-71
2021/05/12 03:04:04;;;;;;;6.80;2.15;;;;;;;11.86;52.78;93466.09;5128382;27;20094;-72
2021/05/12 03:06:29;;;;;;;5.22;2.17;;;;;;;11.74;53.41;93461.50;5133089;27;20117;-71
2021/05/12 03:08:55;;;;;;;3.60;2.08;;;;;;;11.54;54.50;93462.31;5129842;27;20059;-70
2021/05/12 03:11:21;;;;;;;5.22;1.90;;;;;;;11.47;54.93;93467.44;5130823;27;20019;-71
2021/05/12 03:13:46;;;;;;;8.00;3.03;;;;;;;11.45;55.91;93455.16;5120688;27;20104;-71
2021/05/12 03:16:12;;;;;;;6.10;2.33;;;;;;;11.48;56.04;93455.63;5120542;27;20031;-71
2021/05/12 03:18:37;;;;;;;4.57;2.33;;;;;;;11.49;55.17;93460.66;5127974;27;20023;-71
2021/05/12 03:21:03;;;;;;;11.18;2.58;;;;;;;11.48;56.36;93455.63;5126133;27;20511;-71
2021/05/12 03:23:29;;;;;;;7.15;2.42;;;;;;;11.48;56.52;93456.44;5132062;27;20062;-71
2021/05/12 03:25:54;;;;;;;2.80;2.30;;;;;;;11.49;55.25;93454.53;5131931;27;20023;-71
2021/05/12 03:28:19;;;;;;;3.88;2.38;;;;;;;11.54;55.04;93459.66;5118880;27;20038;-71
2021/05/12 03:30:45;;;;;;;4.07;2.40;;;;;;;11.54;55.04;93455.13;5132050;27;20066;-71
2021/05/12 03:33:10;;;;;;;7.45;2.65;;;;;;;11.56;55.11;93446.75;5131864;27;20041;-71
2021/05/12 03:35:38;;;;;;;7.22;2.75;;;;;;;11.58;55.48;93447.22;5131950;27;20490;-72
2021/05/12 03:38:04;;;;;;;3.92;2.33;;;;;;;11.62;55.68;93442.78;5132144;27;20027;-71
2021/05/12 03:40:29;;;;;;;3.95;2.55;;;;;;;11.52;55.37;93459.19;5127683;27;20031;-72
2021/05/12 03:42:57;;;;;;;5.95;3.00;;;;;;;11.45;55.31;93452.50;5131945;27;20098;-71
2021/05/12 03:45:23;;;;;;;3.38;2.33;;;;;;;11.43;54.81;93446.72;5131142;27;20035;-72
2021/05/12 03:47:49;;;;;;;6.28;2.60;;;;;;;11.49;55.31;93454.53;5125271;27;20035;-72
2021/05/12 03:50:16;;;;;;;5.32;2.53;;;;;;;11.43;55.30;93444.03;5122449;27;20088;-71
2021/05/12 03:52:41;;;;;;;6.95;2.53;;;;;;;11.38;55.91;93449.59;5123614;27;20039;-71
2021/05/12 03:55:08;;;;;;;12.38;2.58;;;;;;;11.40;55.78;93452.72;5131047;27;20107;-71
2021/05/12 03:57:34;;;;;;;5.72;2.55;;;;;;;11.45;55.33;93446.41;5119618;27;20117;-72
2021/05/12 04:00:00;;;;;;;5.22;2.33;;;;;;;11.50;54.81;93448.06;5126745;27;20114;-71
2021/05/12 04:02:25;;;;;;;8.05;2.63;;;;;;;11.52;54.36;93449.31;5120775;27;20477;-71
2021/05/12 04:04:51;;;;;;;4.05;2.38;;;;;;;11.55;54.70;93437.97;5131786;27;20015;-71
2021/05/12 04:07:16;;;;;;;11.85;2.83;;;;;;;11.57;54.86;93437.66;5131396;27;20050;-71
2021/05/12 04:09:42;;;;;;;7.43;3.15;;;;;;;11.61;54.75;93430.56;5121361;27;20023;-71
2021/05/12 04:12:08;;;;;;;4.57;2.83;;;;;;;11.64;54.45;93435.22;5118748;27;20022;-71
2021/05/12 04:14:33;;;;;;;4.57;2.67;;;;;;;11.70;54.23;93444.56;5127767;27;20521;-72
2021/05/12 04:16:59;;;;;;;4.63;2.58;;;;;;;11.76;54.16;93431.81;5126480;27;20060;-71
2021/05/12 04:19:24;;;;;;;5.35;2.45;;;;;;;11.84;53.70;93433.59;5129853;27;20026;-71
2021/05/12 04:21:49;;;;;;;5.13;2.65;;;;;;;11.87;53.90;93429.50;5115437;27;20019;-72
2021/05/12 04:24:15;;;;;;;10.35;2.95;;;;;;;11.91;53.80;93427.78;5128269;27;20515;-71
2021/05/12 04:26:40;;;;;;;9.15;2.80;;;;;;;11.95;54.25;93424.09;5122251;27;20034;-72
2021/05/12 04:29:06;;;;;;;7.47;2.97;;;;;;;12.06;54.12;93427.09;5131280;27;20410;-71
2021/05/12 04:31:33;;;;;;;9.57;3.40;;;;;;;11.87;53.67;93429.50;5128379;27;20120;-71
2021/05/12 04:33:59;;;;;;;8.93;3.00;;;;;;;11.92;54.51;93423.97;5131080;27;20486;-71
2021/05/12 04:36:24;;;;;;;5.38;3.25;;;;;;;11.99;54.05;93416.22;5144255;27;20126;-71
2021/05/12 04:38:50;;;;;;;10.88;3.30;;;;;;;12.09;54.12;93418.44;5128884;27;20483;-71
2021/05/12 04:41:17;;;;;;;8.93;2.70;;;;;;;12.24;54.30;93414.31;5128977;27;20019;-71
2021/05/12 04:43:43;;;;;;;8.15;3.25;;;;;;;12.33;53.32;93409.63;5130050;27;20027;-72
2021/05/12 04:46:08;;;;;;;6.07;3.60;;;;;;;12.41;53.45;93400.72;5117378;27;20024;-71
2021/05/12 04:48:34;;;;;;;13.38;3.28;;;;;;;12.52;53.05;93406.41;5127940;27;20027;-70
2021/05/12 04:50:59;;;;;;;11.35;3.78;;;;;;;12.57;53.01;93408.06;5116272;27;20023;-71
2021/05/12 04:53:25;;;;;;;7.50;3.45;;;;;;;12.60;53.08;93415.44;5115975;27;20515;-71
2021/05/12 04:55:50;;;;;;;11.27;2.85;;;;;;;12.54;53.47;93420.22;5130409;27;20030;-71
2021/05/12 04:58:15;;;;;;;12.20;4.07;;;;;;;12.48;53.81;93413.53;5124675;27;20019;-71
2021/05/12 05:00:41;;;;;;;8.75;3.78;;;;;;;12.48;53.56;93408.19;5127592;27;20051;-71
2021/05/12 05:03:10;;;;;;;11.52;3.65;;;;;;;12.60;53.57;93413.53;5118198;27;20030;-71
2021/05/12 05:05:35;;;;;;;11.98;3.50;;;;;;;12.74;53.28;93397.13;5129576;27;20458;-71
2021/05/12 05:08:00;;;;;;;9.52;4.15;;;;;;;12.78;52.85;93391.88;5125948;27;20019;-71
2021/05/12 05:10:26;;;;;;;17.48;3.72;;;;;;;12.83;52.71;93391.66;5126231;27;20034;-71
2021/05/12 05:12:51;;;;;;;22.15;3.28;;;;;;;12.97;52.54;93381.34;5123352;27;20015;-71
2021/05/12 05:15:17;;;;;;;5.00;3.13;;;;;;;13.10;51.86;93378.66;5124867;28;20030;-71
2021/05/12 05:17:43;;;;;;;9.38;3.33;;;;;;;13.17;50.48;93379.63;5128721;27;20382;-71
2021/05/12 05:20:13;;;;;;;15.52;5.63;;;;;;;13.18;50.70;93375.81;5128560;28;20038;-71
2021/05/12 05:22:38;;;;;;;12.20;3.63;;;;;;;13.18;50.88;93385.75;5129890;27;20379;-71
2021/05/12 05:25:05;;;;;;;10.68;2.97;;;;;;;13.20;50.70;93386.97;5128267;28;20102;-71
2021/05/12 05:27:31;;;;;;;11.10;3.85;;;;;;;13.33;50.55;93382.38;5130018;28;20019;-71
2021/05/12 05:29:56;;;;;;;8.30;3.70;;;;;;;13.49;49.92;93378.94;5129780;28;20023;-72
2021/05/12 05:32:21;;;;;;;12.30;3.38;;;;;;;13.58;49.69;93372.31;5124962;28;20050;-71
2021/05/12 05:34:47;;;;;;;12.27;3.40;;;;;;;13.73;49.10;93359.28;5128600;28;20023;-71
2021/05/12 05:37:13;;;;;;;14.90;3.42;;;;;;;13.86;48.75;93363.47;5122882;27;20444;-71
2021/05/12 05:39:38;;;;;;;8.10;3.35;;;;;;;13.98;49.19;93363.38;5121730;27;20518;-71
2021/05/12 05:42:06;;;;;;;15.00;3.63;;;;;;;14.11;49.67;93365.97;5127080;28;20050;-71
2021/05/12 05:44:32;;;;;;;10.05;3.50;;;;;;;14.24;48.37;93359.38;5125478;28;20016;-71
2021/05/12 05:46:57;;;;;;;19.42;3.25;;;;;;;14.34;48.16;93352.69;5127357;28;20034;-71
2021/05/12 05:49:23;;;;;;;10.43;3.83;;;;;;;14.45;47.75;93346.47;5118271;27;20030;-71
2021/05/12 05:51:49;;;;;;;10.77;3.47;;;;;;;14.55;47.52;93353.19;5115926;28;20019;-71
2021/05/12 05:54:15;;;;;;;28.23;3.83;;;;;;;14.61;47.05;93351.81;5126677;28;20036;-71
2021/05/12 05:56:40;;;;;;;15.32;3.80;;;;;;;14.70;47.71;93356.19;5113460;28;20490;-71
2021/05/12 05:59:05;;;;;;;20.48;3.75;;;;;;;14.82;47.54;93356.06;5121784;28;20084;-70
2021/05/12 06:01:31;;;;;;;19.98;4.05;;;;;;;14.84;46.70;93345.78;5117855;28;20072;-71
2021/05/12 06:03:56;;;;;;;21.40;3.95;;;;;;;14.83;46.53;93347.66;5129697;28;20027;-71
2021/05/12 06:06:22;;;;;;;16.45;3.72;;;;;;;14.92;47.06;93349.34;5128218;28;20440;-72
2021/05/12 06:08:47;;;;;;;12.98;4.50;;;;;;;14.84;46.66;93341.19;5124622;28;20020;-71
2021/05/12 06:11:12;;;;;;;7.55;3.53;;;;;;;14.79;46.80;93340.66;5114437;28;20102;-72
2021/05/12 06:13:38;;;;;;;14.32;3.97;;;;;;;14.84;47.31;93330.44;5118850;27;20077;-71
2021/05/12 06:16:04;;;;;;;13.05;3.72;;;;;;;14.96;47.42;93328.75;5116312;28;20542;-70
2021/05/12 06:18:29;;;;;;;22.58;3.65;;;;;;;15.01;47.12;93331.94;5125426;27;20025;-71
2021/05/12 06:20:56;;;;;;;13.25;5.10;;;;;;;15.18;47.12;93335.31;5125201;28;20039;-71
2021/05/12 06:23:21;;;;;;;14.80;4.20;;;;;;;15.30;47.02;93332.47;5128532;27;20035;-71
2021/05/12 06:25:48;;;;;;;9.10;3.55;;;;;;;15.48;46.84;93332.81;5116003;27;20030;-71
2021/05/12 06:28:13;;;;;;;13.52;3.58;;;;;;;15.59;46.09;93330.28;5109194;28;20114;-71
2021/05/12 06:30:39;;;;;;;19.88;3.78;;;;;;;15.62;46.15;93322.31;5111951;28;20473;-71
2021/05/12 06:33:07;;;;;;;9.95;3.85;;;;;;;15.61;47.37;93322.66;5128716;27;20542;-72
2021/05/12 06:35:32;;;;;;;16.27;3.47;;;;;;;15.76;46.56;93324.50;5112754;27;20039;-71
2021/05/12 06:37:58;;;;;;;9.40;3.13;;;;;;;15.84;46.72;93314.66;5130241;27;20023;-72
2021/05/12 06:40:23;;;;;;;12.77;3.40;;;;;;;15.96;46.18;93313.69;5131746;27;20031;-72
2021/05/12 06:42:49;;;;;;;16.70;3.92;;;;;;;16.08;45.91;93312.69;5128760;27;20398;-73
2021/05/12 06:45:14;;;;;;;20.63;4.05;;;;;;;16.23;45.91;93311.78;5112894;28;20032;-72
2021/05/12 06:47:40;;;;;;;12.75;3.97;;;;;;;16.40;46.13;93318.56;5113119;27;20019;-67
2021/05/12 06:50:06;;;;;;;11.50;3.40;;;;;;;16.51;45.14;93319.50;5132993;27;20392;-66
2021/05/12 06:52:32;;;;;;;9.25;3.25;;;;;;;16.60;44.61;93320.00;5128778;27;20406;-67
2021/05/12 06:54:57;;;;;;;14.82;3.33;;;;;;;16.70;44.42;93312.44;5111953;28;20031;-66
2021/05/12 06:57:23;;;;;;;10.75;2.67;;;;;;;16.63;44.38;93315.81;5112530;28;20380;-65
2021/05/12 06:59:48;;;;;;;14.65;4.80;;;;;;;16.73;43.96;93319.78;5131725;27;20025;-65
2021/05/12 07:02:13;;;;;;;12.13;2.85;;;;;;;16.74;43.78;93311.34;5132635;27;20058;-65
2021/05/12 07:04:39;;;;;;;6.97;2.65;;;;;;;16.79;43.93;93310.25;5132649;27;20019;-66
2021/05/12 07:07:04;;;;;;;14.00;3.50;;;;;;;16.88;44.11;93300.00;5132047;27;20019;-67
2021/05/12 07:09:30;;;;;;;6.53;2.75;;;;;;;16.95;43.49;93318.16;5126445;27;20391;-66
2021/05/12 07:11:55;;;;;;;5.43;2.47;;;;;;;16.89;43.61;93315.00;5130565;27;20042;-65
2021/05/12 07:14:20;;;;;;;7.90;3.15;;;;;;;16.94;43.57;93306.63;5131461;27;20027;-66
2021/05/12 07:16:46;;;;;;;6.45;2.65;;;;;;;17.01;43.43;93312.06;5112904;27;20505;-66
2021/05/12 07:19:11;;;;;;;16.58;3.55;;;;;;;17.01;43.77;93306.69;5111912;28;20015;-67
2021/05/12 07:21:36;;;;;;;5.72;2.90;;;;;;;17.03;43.99;93312.50;5128520;27;20039;-66
2021/05/12 07:24:02;;;;;;;13.75;3.40;;;;;;;17.04;43.04;93297.13;5132359;27;20053;-66
2021/05/12 07:26:28;;;;;;;13.80;2.78;;;;;;;17.05;43.10;93285.19;5131192;27;20035;-65
2021/05/12 07:28:53;;;;;;;17.55;2.63;;;;;;;17.05;43.63;93298.66;5130886;27;20453;-64
2021/05/12 07:31:20;;;;;;;8.13;3.60;;;;;;;17.14;43.00;93282.25;5130652;27;20050;-65
2021/05/12 07:33:46;;;;;;;17.58;3.38;;;;;;;17.23;43.00;93285.41;5132228;27;20071;-65
2021/05/12 07:36:12;;;;;;;10.43;3.10;;;;;;;17.20;42.68;93281.53;5113018;27;20019;-65
2021/05/12 07:38:37;;;;;;;14.23;2.80;;;;;;;17.30;42.83;93285.50;5111702;28;20034;-71
2021/05/12 07:41:03;;;;;;;7.30;2.92;;;;;;;17.45;42.14;93276.41;5127719;27;20495;-72
2021/05/12 07:43:29;;;;;;;13.23;3.63;;;;;;;17.56;41.68;93281.88;5132098;27;20027;-71
2021/05/12 07:45:57;;;;;;;9.80;2.92;;;;;;;17.74;41.97;93268.56;5131445;27;20079;-71
2021/05/12 07:48:22;;;;;;;12.13;3.55;;;;;;;17.83;41.32;93269.06;5131776;27;20383;-72
2021/05/12 07:50:48;;;;;;;12.15;3.38;;;;;;;17.98;41.15;93269.19;5114718;27;20026;-71
2021/05/12 07:53:13;;;;;;;10.85;2.92;;;;;;;18.04;40.72;93270.38;5127550;27;20092;-71
2021/05/12 07:55:38;;;;;;;17.33;3.17;;;;;;;18.13;40.27;93262.72;5130442;27;20458;-71
2021/05/12 07:58:05;;;;;;;21.80;3.30;;;;;;;18.30;40.33;93264.00;5112405;27;20017;-70
2021/05/12 08:00:32;;;;;;;7.70;2.47;;;;;;;18.31;39.37;93260.16;5110816;28;20514;-70
2021/05/12 08:02:58;;;;;;;20.67;4.20;;;;;;;18.45;39.49;93257.53;5118128;27;20015;-70
2021/05/12 08:05:24;;;;;;;11.02;3.25;;;;;;;18.54;39.26;93261.81;5129943;27;20427;-71
2021/05/12 08:07:49;;;;;;;26.52;4.07;;;;;;;18.53;39.13;93261.06;5131559;27;20023;-71
2021/05/12 08:10:15;;;;;;;30.98;3.40;;;;;;;18.58;39.11;93252.59;5129958;27;20592;-70
2021/05/12 08:12:40;;;;;;;13.43;3.53;;;;;;;18.61;39.15;93248.38;5131114;27;20072;-70
2021/05/12 08:15:07;;;;;;;17.63;2.92;;;;;;;18.77;38.39;93254.22;5130004;27;20478;-70
2021/05/12 08:17:33;;;;;;;13.55;3.17;;;;;;;18.82;38.35;93253.13;5120673;27;20019;-70
2021/05/12 08:20:00;;;;;;;8.25;2.70;;;;;;;18.95;37.17;93248.94;5124611;27;20047;-70
2021/05/12 08:22:25;;;;;;;13.25;3.00;;;;;;;18.89;37.81;93242.34;5131025;27;20130;-71
2021/05/12 08:24:51;;;;;;;14.00;2.67;;;;;;;19.07;38.48;93244.31;5131051;27;20056;-70
2021/05/12 08:27:16;;;;;;;9.65;2.33;;;;;;;19.41;36.94;93237.44;5128014;27;20035;-70
2021/05/12 08:29:43;;;;;;;14.68;2.70;;;;;;;19.68;36.68;93239.78;5127049;27;20367;-72
2021/05/12 08:32:10;;;;;;;10.18;2.42;;;;;;;19.93;36.22;93228.25;5129163;27;20072;-71
2021/05/12 08:34:36;;;;;;;13.98;3.50;;;;;;;19.98;36.16;93241.38;5129378;27;20027;-71
2021/05/12 08:37:02;;;;;;;15.93;3.75;;;;;;;19.96;35.81;93238.28;5130935;27;20023;-70
2021/05/12 08:39:28;;;;;;;9.63;2.80;;;;;;;20.06;35.20;93231.34;5130772;27;20462;-71
2021/05/12 08:41:54;;;;;;;10.07;2.92;;;;;;;20.16;35.19;93219.72;5127315;27;20030;-70
2021/05/12 08:44:20;;;;;;;7.03;2.20;;;;;;;20.27;35.06;93217.00;5110095;28;20033;-71
2021/05/12 08:46:48;;;;;;;5.93;2.85;;;;;;;20.38;35.42;93225.88;5125632;27;20051;-71
2021/05/12 08:49:16;;;;;;;10.63;2.42;;;;;;;20.53;34.80;93221.94;5110420;28;20102;-71
2021/05/12 08:51:42;;;;;;;12.20;2.78;;;;;;;20.72;35.04;93223.47;5129322;27;20040;-73
2021/05/12 08:54:08;;;;;;;10.00;2.80;;;;;;;20.80;34.11;93219.59;5130761;27;20035;-70
2021/05/12 08:56:34;;;;;;;12.85;3.25;;;;;;;20.84;34.92;93223.03;5130707;27;20030;-70
2021/05/12 08:59:01;;;;;;;9.02;2.40;;;;;;;21.03;33.75;93224.50;5130374;27;20429;-71
2021/05/12 09:01:27;;;;;;;9.65;2.67;;;;;;;21.16;34.01;93216.69;5128200;27;20019;-71
2021/05/12 09:03:52;;;;;;;5.97;2.53;;;;;;;21.24;33.65;93204.63;5128955;27;20370;-71
2021/05/12 09:06:18;;;;;;;7.55;2.78;;;;;;;21.47;33.81;93210.72;5130590;27;20490;-71
2021/05/12 09:08:47;;;;;;;9.07;2.72;;;;;;;21.69;33.75;93203.97;5130575;27;20035;-71
2021/05/12 09:11:12;;;;;;;7.78;2.60;;;;;;;21.95;32.79;93207.25;5127869;27;20110;-71
2021/05/12 09:13:39;;;;;;;9.88;2.67;;;;;;;22.09;32.06;93201.72;5128960;27;20515;-75
2021/05/12 09:16:27;;;;;;;19.13;3.10;;;;;;;22.12;32.18;93200.88;5129188;27;20118;-74
2021/05/12 09:19:08;;;;;;;9.93;2.28;;;;;;;22.13;32.85;93193.53;5127369;28;20452;-74
2021/05/12 09:22:02;;;;;;;9.48;2.45;;;;;;;22.30;32.91;93195.31;5125384;27;20055;-74
2021/05/12 09:24:36;;;;;;;8.52;2.97;;;;;;;22.38;32.02;93193.31;5107777;28;20108;-74
2021/05/12 09:27:04;;;;;;;10.32;2.47;;;;;;;22.52;31.77;93186.97;5129579;27;20027;-75
2021/05/12 09:29:37;;;;;;;9.23;2.78;;;;;;;22.79;32.84;93193.22;5123245;27;20035;-75
2021/05/12 09:32:14;;;;;;;18.00;3.38;;;;;;;23.06;32.20;93189.03;5127443;27;20029;-74
2021/05/12 09:35:02;;;;;;;9.80;2.47;;;;;;;23.33;31.45;93194.53;5122902;27;20043;-75
2021/05/12 09:37:29;;;;;;;11.45;2.55;;;;;;;23.48;29.95;93184.19;5126457;28;20023;-75
2021/05/12 09:39:55;;;;;;;9.70;2.40;;;;;;;23.65;30.56;93175.00;5129777;27;20023;-75
2021/05/12 09:42:21;;;;;;;15.00;3.15;;;;;;;23.82;30.44;93187.56;5127356;27;20029;-74
2021/05/12 09:44:48;;;;;;;5.25;2.90;;;;;;;23.97;29.82;93185.38;5130058;27;20023;-74
2021/05/12 09:47:29;;;;;;;15.13;2.63;;;;;;;24.12;29.57;93196.00;5128484;28;20118;-74
2021/05/12 09:49:55;;;;;;;6.30;2.20;;;;;;;24.20;29.56;93190.06;5129055;27;20027;-80
2021/05/12 09:52:30;;;;;;;16.73;2.53;;;;;;;24.29;29.12;93189.50;5125362;27;20043;-74
2021/05/12 09:55:00;;;;;;;15.68;2.85;;;;;;;24.35;29.27;93187.06;5125798;27;20081;-76
2021/05/12 09:57:26;;;;;;;9.07;2.60;;;;;;;24.38;29.06;93186.22;5125361;28;20031;-77
2021/05/12 09:59:52;;;;;;;12.23;2.35;;;;;;;24.39;29.69;93193.22;5109306;28;20027;-71
2021/05/12 10:02:17;;;;;;;14.55;3.15;;;;;;;24.43;29.95;93194.69;5127017;27;20494;-71
2021/05/12 10:04:43;;;;;;;7.90;2.75;;;;;;;24.45;29.12;93185.34;5127863;27;20035;-71
2021/05/12 10:07:19;;;;;;;13.55;2.47;;;;;;;24.52;29.42;93180.53;5130789;27;20027;-71
2021/05/12 10:09:46;;;;;;;7.38;2.47;;;;;;;24.58;29.35;93178.09;5132391;27;20027;-71
2021/05/12 10:12:16;;;;;;;10.23;1.90;;;;;;;24.61;29.07;93182.72;5130868;27;20054;-71
2021/05/12 10:14:44;;;;;;;14.77;2.45;;;;;;;24.66;29.05;93174.06;5129668;27;20106;-71
2021/05/12 10:17:12;;;;;;;9.93;2.00;;;;;;;24.73;29.14;93173.13;5127414;27;20031;-71
2021/05/12 10:19:38;;;;;;;10.15;2.08;;;;;;;24.78;29.20;93164.47;5129234;27;20529;-71
2021/05/12 10:22:05;;;;;;;6.00;2.15;;;;;;;24.86;29.04;93160.41;5113422;28;20051;-71
2021/05/12 10:24:32;;;;;;;11.98;2.13;;;;;;;24.92;28.11;93174.31;5131620;27;20038;-72
2021/05/12 10:27:01;;;;;;;7.43;1.90;;;;;;;24.87;28.83;93164.66;5132634;27;20031;-71
2021/05/12 10:29:28;;;;;;;8.48;2.53;;;;;;;24.94;28.94;93161.81;5132442;27;20054;-71
2021/05/12 10:31:53;;;;;;;11.45;1.98;;;;;;;24.94;28.51;93155.59;5133613;27;20035;-71
2021/05/12 10:34:36;;;;;;;7.80;1.90;;;;;;;25.00;28.21;93154.66;5133767;27;20368;-71
2021/05/12 10:37:28;;;;;;;9.00;1.98;;;;;;;25.00;28.43;93143.00;5132527;27;20030;-71
2021/05/12 10:40:01;;;;;;;12.50;1.98;;;;;;;25.09;28.55;93139.69;5130859;27;20098;-71
2021/05/12 10:46:05;;;;;;;12.00;2.60;;;;;;;25.20;28.26;93140.22;5113352;28;20039;-71
2021/05/12 10:48:39;;;;;;;6.43;2.05;;;;;;;25.26;28.20;93135.84;5129948;27;20027;-71
2021/05/12 10:51:08;;;;;;;12.20;2.60;;;;;;;25.31;28.04;93140.00;5129951;27;20059;-71
2021/05/12 10:53:45;;;;;;;15.15;2.22;;;;;;;25.30;27.82;93128.34;5129908;27;20117;-71
2021/05/12 10:56:14;;;;;;;9.43;2.40;;;;;;;25.31;27.93;93127.13;5133423;27;20079;-71
2021/05/12 10:58:54;;;;;;;7.10;1.83;;;;;;;25.30;28.32;93133.81;5133173;27;20372;-71
2021/05/12 11:01:19;;;;;;;5.13;2.22;;;;;;;25.22;28.71;93133.19;5129001;27;20422;-71
2021/05/12 11:03:51;;;;;;;5.72;1.90;;;;;;;25.21;28.26;93128.16;5129169;27;20027;-71
2021/05/12 11:06:19;;;;;;;6.20;1.80;;;;;;;25.12;27.82;93136.13;5127002;27;20102;-72
2021/05/12 11:09:06;;;;;;;6.03;2.10;;;;;;;25.01;28.61;93118.06;5133059;27;20034;-71
2021/05/12 11:11:38;;;;;;;8.18;1.90;;;;;;;24.96;28.60;93125.94;5131356;27;20022;-71
2021/05/12 11:14:22;;;;;;;;;;;;;;;24.93;28.84;93122.09;5130412;27;20486;-71
2021/05/12 11:17:13;;;;;;;5.97;1.95;;;;;;;24.96;28.67;93115.81;5130417;27;19968;-71
2021/05/12 11:25:12;;;;;;;8.68;1.85;;;;;;;25.38;28.44;93096.97;5111570;28;20031;-71
2021/05/12 11:33:07;;;;;;;8.07;1.80;;;;;;;25.89;28.65;93090.28;5122707;27;20034;-70
2021/05/12 11:35:34;;;;;;;11.93;1.80;;;;;;;26.08;27.49;93085.94;5112250;28;20023;-71
2021/05/12 11:38:00;;;;;;;12.35;2.72;;;;;;;26.19;27.87;93075.47;5130317;27;20019;-73
2021/05/12 11:40:30;;;;;;;3.42;1.40;;;;;;;26.32;28.03;93072.81;5132208;27;20031;-70
2021/05/12 11:42:56;;;;;;;7.53;2.08;;;;;;;26.48;27.48;93070.00;5132450;27;20129;-71
2021/05/12 11:45:22;;;;;;;12.68;2.95;;;;;;;26.62;27.13;93074.28;5130791;27;20030;-71